Time;durP1;ratioP1;P1;durP2;ratioP2;P2;SDS_P1;SDS_P2;PMS_P1;PMS_P2;Temp;Humidity;BMP_temperature;BMP_pressure;BME280_temperature;BME280_humidity;BME280_pressure;Samples;Min_cycle;Max_cycle;Signal;HPM_P1;HPM_P2
2022/01/20 00:02:08;;;;;;;17.33;9.97;;;13.40;98.10;;;;;;10449833;28;20627;-84
2022/01/20 00:07:30;;;;;;;14.97;10.37;;;13.40;97.60;;;;;;10445016;28;20261;-84
2022/01/20 00:25:47;;;;;;;12.80;10.20;;;13.40;96.80;;;;;;10448753;28;20292;-84
2022/01/20 00:28:55;;;;;;;14.90;9.17;;;13.60;96.10;;;;;;10460906;28;20260;-84
2022/01/20 00:34:11;;;;;;;13.47;9.63;;;13.50;95.70;;;;;;10455348;28;20273;-84
2022/01/20 00:39:14;;;;;;;14.40;9.03;;;13.60;95.10;;;;;;10455382;28;20710;-84
2022/01/20 00:44:16;;;;;;;12.97;8.77;;;13.60;95.10;;;;;;10456137;28;20246;-84
2022/01/20 00:49:19;;;;;;;12.07;9.27;;;13.50;94.70;;;;;;10454406;28;20592;-84
2022/01/20 00:54:21;;;;;;;10.27;8.47;;;13.60;94.10;;;;;;10454400;28;20250;-84
2022/01/20 00:59:25;;;;;;;14.67;8.93;;;13.60;94.30;;;;;;10455281;28;20262;-84
2022/01/20 01:04:28;;;;;;;11.53;8.73;;;13.60;94.00;;;;;;10461458;28;20210;-85
2022/01/20 01:09:32;;;;;;;10.80;7.50;;;13.70;93.80;;;;;;10454052;28;20245;-84
2022/01/20 01:14:35;;;;;;;9.63;7.53;;;13.60;93.60;;;;;;10452062;28;20300;-84
2022/01/20 01:25:01;;;;;;;10.57;8.23;;;13.60;93.40;;;;;;10451438;28;20211;-84
2022/01/20 01:35:34;;;;;;;9.27;7.03;;;13.50;93.30;;;;;;10438577;28;20259;-84
2022/01/20 01:40:41;;;;;;;9.87;7.50;;;13.50;93.10;;;;;;10453859;28;20234;-84
2022/01/20 01:45:43;;;;;;;10.40;6.97;;;13.40;93.40;;;;;;10453857;28;20207;-84
2022/01/20 01:50:51;;;;;;;10.00;6.93;;;13.40;93.10;;;;;;10453724;28;20199;-84
2022/01/20 01:55:56;;;;;;;7.47;6.30;;;13.50;93.00;;;;;;10452675;28;20266;-84
2022/01/20 02:01:00;;;;;;;8.57;6.43;;;13.50;92.90;;;;;;10437053;28;20203;-84
2022/01/20 02:22:07;;;;;;;7.37;5.07;;;13.20;92.80;;;;;;10453594;28;20602;-84
2022/01/20 02:27:25;;;;;;;6.87;5.43;;;13.40;92.30;;;;;;10452559;28;20260;-84
2022/01/20 02:32:31;;;;;;;8.93;5.70;;;13.40;92.30;;;;;;10452128;28;20215;-84
2022/01/20 02:37:34;;;;;;;8.60;5.60;;;13.40;92.20;;;;;;10453064;28;20285;-84
2022/01/20 02:47:58;;;;;;;7.43;5.30;;;13.30;92.40;;;;;;10472301;28;20199;-84
2022/01/20 02:53:00;;;;;;;5.87;4.27;;;13.20;92.40;;;;;;10473505;28;20610;-83
2022/01/20 02:58:03;;;;;;;5.20;4.40;;;13.30;92.20;;;;;;10471206;28;20253;-83
2022/01/20 03:03:06;;;;;;;6.17;4.10;;;13.30;92.00;;;;;;10469264;28;20197;-84
2022/01/20 03:08:10;;;;;;;5.17;3.77;;;13.20;91.80;;;;;;10473414;28;20233;-83
2022/01/20 03:13:12;;;;;;;8.03;3.83;;;13.30;91.80;;;;;;10471113;28;20208;-83
2022/01/20 03:18:15;;;;;;;4.67;3.97;;;13.30;91.50;;;;;;10471940;28;20230;-85
2022/01/20 03:23:17;;;;;;;5.30;3.20;;;13.20;91.60;;;;;;10469108;28;20191;-84
2022/01/20 03:28:20;;;;;;;3.20;2.90;;;13.30;91.10;;;;;;10475461;28;20199;-83
2022/01/20 03:33:25;;;;;;;5.47;3.57;;;13.30;90.80;;;;;;10437749;28;20268;-84
2022/01/20 03:38:28;;;;;;;4.97;3.13;;;13.30;90.90;;;;;;10450655;28;20232;-84
2022/01/20 03:43:33;;;;;;;7.03;3.17;;;13.30;90.70;;;;;;10450903;28;20254;-84
2022/01/20 03:48:48;;;;;;;7.13;2.77;;;13.20;90.80;;;;;;10449596;28;20204;-85
2022/01/20 03:53:53;;;;;;;3.33;2.80;;;13.10;91.00;;;;;;10450507;28;20545;-84
2022/01/20 03:59:00;;;;;;;10.77;4.03;;;13.10;91.00;;;;;;10450330;28;20677;-84
2022/01/20 04:04:03;;;;;;;5.90;2.67;;;12.10;80.10;;;;;;10449245;28;20203;-84
2022/01/20 04:09:25;;;;;;;6.23;3.27;;;10.80;95.90;;;;;;10449944;28;20202;-84
2022/01/20 04:14:31;;;;;;;4.77;3.03;;;7.90;99.90;;;;;;10449996;28;20316;-84
2022/01/20 04:19:35;;;;;;;3.60;2.47;;;11.90;95.80;;;;;;10448559;28;20265;-84
2022/01/20 04:24:38;;;;;;;5.60;2.37;;;12.80;93.20;;;;;;10448365;28;20237;-84
2022/01/20 04:29:41;;;;;;;2.90;2.20;;;12.90;91.70;;;;;;10448409;28;20238;-84
2022/01/20 04:34:44;;;;;;;5.20;2.17;;;13.20;91.20;;;;;;10449240;28;20242;-84
2022/01/20 04:39:50;;;;;;;6.17;2.60;;;13.10;90.60;;;;;;10447871;28;20693;-84
2022/01/20 04:44:58;;;;;;;4.20;1.77;;;13.20;90.60;;;;;;10448221;28;20631;-84
2022/01/20 05:00:43;;;;;;;6.73;1.87;;;13.20;89.20;;;;;;10449178;28;20297;-84
2022/01/20 05:06:21;;;;;;;6.00;3.63;;;13.30;88.20;;;;;;10447194;28;20625;-84
2022/01/20 05:11:23;;;;;;;3.03;1.60;;;13.30;88.00;;;;;;10452022;28;20732;-84
2022/01/20 05:16:26;;;;;;;4.23;1.83;;;13.30;87.20;;;;;;10454520;28;20393;-84
2022/01/20 05:21:34;;;;;;;3.07;1.37;;;13.20;87.00;;;;;;10430422;28;20244;-84
2022/01/20 05:26:41;;;;;;;2.87;1.67;;;13.10;86.90;;;;;;10413941;28;20298;-84
2022/01/20 05:31:44;;;;;;;4.27;1.93;;;13.20;86.40;;;;;;10444115;28;20286;-84
2022/01/20 05:36:48;;;;;;;3.57;1.83;;;13.10;85.90;;;;;;10453622;28;20268;-84
2022/01/20 05:41:52;;;;;;;2.60;1.77;;;13.20;85.70;;;;;;10455124;28;20658;-84
2022/01/20 05:47:14;;;;;;;4.00;1.40;;;13.20;85.20;;;;;;10453571;28;20296;-84
2022/01/20 05:52:44;;;;;;;5.03;1.90;;;13.30;84.80;;;;;;10438264;28;20294;-83
2022/01/20 05:57:47;;;;;;;3.83;1.67;;;13.00;83.70;;;;;;10453176;28;20258;-84
2022/01/20 06:08:14;;;;;;;4.87;2.03;;;12.40;86.00;;;;;;10453214;28;20244;-84
2022/01/20 06:13:16;;;;;;;6.20;1.53;;;12.80;85.30;;;;;;10452734;28;20587;-84
2022/01/20 06:18:19;;;;;;;3.00;1.43;;;13.00;84.70;;;;;;10452742;28;20320;-84
2022/01/20 06:23:33;;;;;;;3.37;1.70;;;11.30;87.40;;;;;;10436381;28;20195;-84
2022/01/20 06:28:40;;;;;;;4.17;1.43;;;11.40;89.30;;;;;;10452906;28;20210;-84
2022/01/20 06:33:44;;;;;;;4.33;1.47;;;12.50;85.40;;;;;;10450751;28;20207;-84
2022/01/20 06:38:47;;;;;;;3.90;1.67;;;12.60;84.90;;;;;;10451909;28;20745;-84
2022/01/20 06:43:50;;;;;;;2.27;0.70;;;12.80;82.30;;;;;;10451841;28;20238;-84
2022/01/20 06:48:53;;;;;;;7.17;1.70;;;12.50;84.50;;;;;;10450321;28;20785;-84
2022/01/20 06:53:59;;;;;;;3.33;1.60;;;12.90;82.80;;;;;;10453516;28;20832;-85
2022/01/20 06:59:04;;;;;;;3.67;1.53;;;12.80;81.50;;;;;;10450632;28;20306;-85
2022/01/20 07:04:08;;;;;;;6.50;1.77;;;12.80;83.00;;;;;;10433245;28;20227;-85
2022/01/20 07:09:11;;;;;;;1.20;0.90;;;13.00;82.10;;;;;;10433089;28;20284;-85
2022/01/20 07:14:15;;;;;;;2.10;1.13;;;13.10;81.60;;;;;;10443932;28;20243;-86
2022/01/20 07:19:17;;;;;;;2.13;1.20;;;13.00;81.70;;;;;;10446810;28;20304;-86
2022/01/20 07:24:20;;;;;;;2.83;1.50;;;13.00;81.60;;;;;;10447716;28;20230;-85
2022/01/20 07:29:24;;;;;;;1.90;1.20;;;13.10;81.30;;;;;;10445583;28;20231;-85
2022/01/20 07:34:27;;;;;;;3.47;1.53;;;13.00;80.60;;;;;;10447075;28;20356;-85
2022/01/20 07:39:30;;;;;;;2.07;1.27;;;12.90;81.40;;;;;;10431056;28;20989;-85
2022/01/20 07:44:33;;;;;;;2.87;1.20;;;12.90;80.70;;;;;;10449049;28;20340;-85
2022/01/20 07:49:42;;;;;;;2.33;1.40;;;13.10;80.30;;;;;;10448749;28;20296;-85
2022/01/20 07:54:45;;;;;;;3.13;1.37;;;13.00;80.30;;;;;;10444481;28;20235;-85
2022/01/20 07:59:48;;;;;;;3.40;1.30;;;12.80;80.80;;;;;;10448818;28;20251;-85
2022/01/20 08:04:51;;;;;;;7.93;1.60;;;12.90;80.50;;;;;;10446991;28;20350;-85
2022/01/20 08:09:57;;;;;;;1.60;1.00;;;13.00;79.70;;;;;;10450825;28;20659;-85
2022/01/20 08:15:02;;;;;;;1.83;1.20;;;13.10;78.00;;;;;;10448232;28;20258;-85
2022/01/20 08:20:34;;;;;;;2.90;1.33;;;13.20;78.60;;;;;;10415897;28;20277;-85
2022/01/20 08:25:39;;;;;;;9.00;1.50;;;12.60;79.40;;;;;;10447776;28;20203;-87
2022/01/20 08:30:43;;;;;;;3.93;1.37;;;12.00;69.10;;;;;;10447672;28;20203;-86
2022/01/20 08:35:46;;;;;;;5.13;1.60;;;10.40;72.70;;;;;;10393805;22;20248;-87
2022/01/20 08:40:57;;;;;;;5.60;1.60;;;11.40;82.10;;;;;;10351404;28;20231;-88
2022/01/20 08:45:59;;;;;;;3.50;1.80;;;12.60;79.40;;;;;;10367900;28;20317;-88
2022/01/20 08:51:03;;;;;;;4.27;1.33;;;13.00;78.10;;;;;;10367650;28;20683;-87
2022/01/20 08:56:12;;;;;;;2.10;0.90;;;13.00;78.10;;;;;;10353286;28;20244;-87
2022/01/20 09:01:37;;;;;;;3.23;1.37;;;13.00;77.90;;;;;;10373904;23;20401;-84
2022/01/20 09:06:40;;;;;;;7.88;3.08;;;12.80;74.80;;;;;;10434620;28;20497;-83
2022/01/20 09:12:15;;;;;;;7.73;2.40;;;5.90;77.30;;;;;;10436967;28;20222;-82
2022/01/20 09:17:15;;;;;;;4.60;1.80;;;3.90;91.00;;;;;;10409846;28;20663;-81
2022/01/20 09:22:19;;;;;;;8.60;2.33;;;2.90;85.20;;;;;;10438118;28;20229;-81
2022/01/20 09:27:21;;;;;;;3.73;2.03;;;1.00;96.50;;;;;;10437747;28;20203;-81
2022/01/20 09:32:27;;;;;;;4.37;2.27;;;1.50;98.40;;;;;;10436782;28;20227;-81
2022/01/20 09:37:30;;;;;;;5.37;1.60;;;0.70;91.10;;;;;;10429554;28;20250;-81
2022/01/20 09:42:33;;;;;;;3.93;1.40;;;0.60;91.50;;;;;;10454932;28;20584;-81
2022/01/20 09:47:37;;;;;;;13.00;2.30;;;0.70;91.80;;;;;;10420538;28;20265;-81
2022/01/20 09:53:15;;;;;;;4.77;1.60;;;0.80;91.60;;;;;;10394174;28;20277;-81
2022/01/20 09:58:42;;;;;;;3.90;1.27;;;2.50;93.60;;;;;;10417975;28;20368;-80
2022/01/20 10:03:46;;;;;;;5.50;2.20;;;1.30;97.00;;;;;;10386169;28;20682;-83
2022/01/20 10:09:00;;;;;;;4.23;1.50;;;1.00;93.10;;;;;;10380394;28;20575;-84
2022/01/20 10:14:55;;;;;;;6.60;2.53;;;3.00;90.60;;;;;;10403827;28;20278;-83
2022/01/20 10:20:27;;;;;;;5.93;2.03;;;2.20;90.60;;;;;;10237742;28;20779;-83
2022/01/20 10:25:37;;;;;;;6.73;1.50;;;5.00;99.90;;;;;;10223596;29;20289;-85
2022/01/20 10:31:11;;;;;;;6.33;1.97;;;6.10;96.50;;;;;;10454408;22;20252;-87
2022/01/20 10:36:14;;;;;;;5.47;2.00;;;4.70;98.50;;;;;;10494849;28;20213;-88
2022/01/20 10:41:37;;;;;;;11.80;2.70;;;6.50;86.50;;;;;;10508463;28;20202;-92
2022/01/20 10:47:01;;;;;;;5.50;1.97;;;6.40;92.40;;;;;;10513409;28;20247;-93
2022/01/20 10:52:11;;;;;;;14.77;2.03;;;6.90;67.70;;;;;;10477006;28;20570;-89
2022/01/20 10:57:16;;;;;;;10.00;2.17;;;7.50;68.10;;;;;;10462847;28;20218;-89
2022/01/20 11:02:25;;;;;;;8.53;1.97;;;9.70;64.80;;;;;;10497464;28;20224;-88
2022/01/20 11:07:28;;;;;;;5.07;1.77;;;10.60;64.10;;;;;;10480302;28;20252;-89
2022/01/20 11:12:34;;;;;;;14.00;1.83;;;10.40;63.20;;;;;;10497487;28;20195;-88
2022/01/20 11:18:10;;;;;;;5.50;1.80;;;11.20;61.70;;;;;;10495233;28;20279;-88
2022/01/20 11:23:14;;;;;;;6.90;1.80;;;11.30;61.90;;;;;;10496863;28;20202;-88
2022/01/20 11:28:24;;;;;;;3.67;1.30;;;11.10;60.90;;;;;;10507097;28;20298;-88
2022/01/20 11:33:38;;;;;;;8.60;2.00;;;12.00;62.00;;;;;;10533011;28;20262;-88
2022/01/20 11:38:46;;;;;;;5.43;1.60;;;12.20;61.60;;;;;;10521883;28;20243;-88
2022/01/20 11:43:51;;;;;;;3.87;1.30;;;12.40;60.90;;;;;;10521708;28;20259;-88
2022/01/20 11:49:01;;;;;;;4.40;1.73;;;12.50;61.40;;;;;;10521466;28;20200;-88
2022/01/20 11:54:05;;;;;;;3.23;1.10;;;12.60;61.70;;;;;;10539475;28;20202;-88
2022/01/20 11:59:11;;;;;;;6.00;2.00;;;12.00;59.70;;;;;;10521104;28;20221;-87
2022/01/20 12:04:14;;;;;;;7.20;1.63;;;12.60;61.80;;;;;;10504167;28;20617;-88
2022/01/20 12:09:39;;;;;;;3.63;1.57;;;12.30;62.90;;;;;;10520892;28;20205;-88
2022/01/20 12:14:42;;;;;;;2.37;1.37;;;12.30;61.20;;;;;;10538825;28;20605;-88
2022/01/20 12:19:54;;;;;;;4.70;1.80;;;12.50;62.60;;;;;;10505637;28;20221;-88
2022/01/20 12:24:57;;;;;;;3.87;1.53;;;11.80;63.40;;;;;;10529560;28;20193;-88
2022/01/20 12:30:00;;;;;;;5.50;1.57;;;12.30;63.80;;;;;;10528342;28;20264;-88
2022/01/20 12:35:03;;;;;;;3.30;1.50;;;11.90;64.90;;;;;;10546546;28;20247;-87
2022/01/20 12:40:16;;;;;;;3.20;1.50;;;12.50;64.70;;;;;;10528330;28;20783;-87
2022/01/20 12:51:02;;;;;;;4.10;1.50;;;12.40;64.80;;;;;;10546321;28;20197;-87
2022/01/20 12:56:10;;;;;;;5.60;1.60;;;12.40;63.20;;;;;;10528254;28;20198;-87
2022/01/20 13:01:13;;;;;;;4.70;3.17;;;12.50;65.40;;;;;;10528169;28;20194;-87
2022/01/20 13:06:26;;;;;;;5.37;1.70;;;12.30;65.70;;;;;;10527496;28;20247;-87
2022/01/20 13:11:43;;;;;;;3.57;1.63;;;12.60;65.40;;;;;;10542708;28;20610;-87
2022/01/20 13:16:51;;;;;;;6.07;1.47;;;12.10;65.20;;;;;;10527308;28;20205;-87
2022/01/20 13:21:54;;;;;;;5.90;1.57;;;11.70;66.30;;;;;;10544997;28;20198;-87
2022/01/20 13:26:58;;;;;;;4.27;1.90;;;12.40;66.20;;;;;;10544878;28;20198;-87
2022/01/20 13:32:00;;;;;;;3.97;1.73;;;12.10;65.00;;;;;;10544345;28;20225;-87
2022/01/20 13:37:04;;;;;;;3.70;1.27;;;12.30;63.40;;;;;;10544087;28;20260;-87
2022/01/20 13:45:00;;;;;;;3.77;1.40;;;11.20;68.60;;;;;;10544214;28;20190;-87
2022/01/20 13:48:08;;;;;;;5.73;1.30;;;12.00;65.90;;;;;;10544056;28;20205;-87
2022/01/20 13:53:13;;;;;;;3.57;1.13;;;11.50;65.90;;;;;;10543784;28;20243;-88
2022/01/20 13:58:22;;;;;;;3.27;2.10;;;12.10;66.90;;;;;;10544461;28;20213;-87
2022/01/20 14:03:25;;;;;;;3.13;1.63;;;12.60;65.00;;;;;;10525718;28;20748;-87
2022/01/20 14:08:28;;;;;;;4.77;1.60;;;12.60;66.50;;;;;;10525355;28;20189;-87
2022/01/20 14:13:30;;;;;;;5.80;1.77;;;12.80;66.40;;;;;;10542210;28;20593;-87
2022/01/20 14:18:41;;;;;;;3.10;1.93;;;12.10;63.90;;;;;;10542676;28;20205;-87
2022/01/20 14:23:44;;;;;;;2.63;1.30;;;12.50;66.90;;;;;;10542576;28;20198;-87
2022/01/20 14:28:46;;;;;;;2.70;1.47;;;12.70;66.80;;;;;;10542434;28;20231;-88
2022/01/20 14:33:48;;;;;;;3.93;1.60;;;12.60;67.00;;;;;;10541935;28;20566;-87
2022/01/20 14:38:51;;;;;;;9.00;2.70;;;12.20;66.70;;;;;;10523613;28;20226;-87
2022/01/20 14:43:53;;;;;;;4.23;1.53;;;12.40;66.30;;;;;;10506460;28;20610;-87
2022/01/20 14:48:56;;;;;;;2.40;1.57;;;11.90;69.40;;;;;;10541664;28;20198;-88
2022/01/20 14:53:58;;;;;;;5.80;1.90;;;12.00;69.70;;;;;;10523142;28;20197;-88
2022/01/20 14:59:00;;;;;;;3.77;1.20;;;11.70;66.80;;;;;;10541265;28;20626;-87
2022/01/20 15:04:04;;;;;;;2.40;1.60;;;12.50;69.10;;;;;;10523032;28;20197;-87
2022/01/20 15:09:08;;;;;;;4.87;1.77;;;12.30;69.60;;;;;;10540821;28;20198;-87
2022/01/20 15:14:13;;;;;;;4.47;1.80;;;12.20;70.00;;;;;;10540780;28;20254;-87
2022/01/20 15:19:18;;;;;;;3.70;1.73;;;12.20;67.80;;;;;;10540226;28;20635;-87
2022/01/20 15:24:20;;;;;;;5.47;1.80;;;12.30;70.70;;;;;;10540211;28;20213;-87
2022/01/20 15:29:23;;;;;;;4.83;2.13;;;11.70;68.80;;;;;;10522073;28;20229;-87
2022/01/20 15:34:25;;;;;;;4.87;1.73;;;11.10;70.20;;;;;;10539589;28;20202;-87
2022/01/20 15:39:28;;;;;;;4.83;1.93;;;11.40;71.40;;;;;;10539696;28;20274;-87
2022/01/20 15:44:30;;;;;;;6.10;2.20;;;12.00;71.70;;;;;;10521235;28;20268;-87
2022/01/20 15:49:33;;;;;;;5.60;1.63;;;12.00;70.40;;;;;;10539098;28;20198;-88
2022/01/20 15:54:35;;;;;;;2.30;1.23;;;12.30;71.20;;;;;;10538466;28;20194;-87
2022/01/20 15:59:38;;;;;;;2.60;1.53;;;11.90;72.70;;;;;;10539150;28;20629;-87
2022/01/20 16:04:40;;;;;;;2.47;1.47;;;11.90;72.10;;;;;;10521230;28;20594;-87
2022/01/20 16:09:43;;;;;;;4.27;1.37;;;11.70;72.40;;;;;;10504118;28;20231;-88
2022/01/20 16:14:46;;;;;;;6.20;1.80;;;12.20;73.50;;;;;;10538909;28;20198;-88
2022/01/20 16:19:49;;;;;;;4.13;1.70;;;12.10;73.30;;;;;;10538308;28;20270;-88
2022/01/20 16:24:52;;;;;;;3.03;1.57;;;12.10;73.30;;;;;;10520772;28;20186;-87
2022/01/20 16:29:55;;;;;;;4.77;2.30;;;12.40;72.90;;;;;;10520310;28;20702;-88
2022/01/20 16:34:57;;;;;;;3.67;2.10;;;12.60;72.70;;;;;;10520312;28;20197;-88
2022/01/20 16:40:00;;;;;;;3.67;2.00;;;12.10;73.30;;;;;;10538167;28;20213;-88
2022/01/20 16:45:08;;;;;;;3.03;1.87;;;12.60;72.80;;;;;;10538178;28;20202;-87
2022/01/20 16:50:13;;;;;;;3.87;1.80;;;12.70;72.10;;;;;;10520197;28;20203;-88
2022/01/20 16:55:16;;;;;;;5.80;2.40;;;12.40;72.60;;;;;;10520088;28;20198;-88
2022/01/20 17:00:19;;;;;;;6.23;2.73;;;12.40;72.30;;;;;;10519925;28;20267;-88
2022/01/20 17:05:21;;;;;;;3.30;1.90;;;11.90;70.80;;;;;;10538647;28;20220;-88
2022/01/20 17:10:24;;;;;;;4.17;1.93;;;11.90;71.00;;;;;;10545588;28;20259;-88
2022/01/20 17:15:26;;;;;;;3.50;1.80;;;11.80;74.30;;;;;;10545446;28;20198;-88
2022/01/20 17:20:29;;;;;;;4.03;1.93;;;11.80;74.00;;;;;;10545059;28;20585;-87
2022/01/20 17:25:32;;;;;;;5.83;2.40;;;12.10;71.80;;;;;;10545072;28;20200;-88
2022/01/20 17:30:34;;;;;;;2.67;1.60;;;12.40;70.80;;;;;;10544714;28;20243;-88
2022/01/20 17:35:37;;;;;;;6.27;2.47;;;12.50;72.70;;;;;;10526574;28;20251;-88
2022/01/20 17:40:42;;;;;;;5.23;2.77;;;12.40;73.10;;;;;;10544220;28;20271;-88
2022/01/20 17:45:45;;;;;;;4.30;2.17;;;12.50;72.50;;;;;;10544406;28;20223;-88
2022/01/20 17:50:48;;;;;;;3.10;2.27;;;12.50;72.30;;;;;;10544141;28;20229;-88
2022/01/20 17:55:51;;;;;;;6.67;2.33;;;12.20;73.20;;;;;;10543964;28;20236;-89
2022/01/20 18:00:53;;;;;;;6.10;1.83;;;12.50;72.10;;;;;;10525405;28;20230;-89
2022/01/20 18:05:56;;;;;;;4.07;2.17;;;12.50;71.90;;;;;;10543301;28;20249;-89
2022/01/20 18:10:58;;;;;;;5.17;2.47;;;12.30;71.70;;;;;;10543193;28;20251;-89
2022/01/20 18:16:01;;;;;;;2.93;1.70;;;12.40;72.10;;;;;;10525046;28;20266;-89
2022/01/20 18:21:04;;;;;;;6.27;2.83;;;12.50;71.80;;;;;;10541910;28;20240;-89
2022/01/20 18:26:07;;;;;;;3.80;1.97;;;12.30;70.00;;;;;;10542597;28;20198;-89
2022/01/20 18:31:09;;;;;;;5.47;2.30;;;12.50;71.70;;;;;;10542179;28;20548;-90
2022/01/20 18:36:12;;;;;;;5.30;2.30;;;12.60;71.00;;;;;;10524000;28;20613;-89
2022/01/20 18:41:15;;;;;;;5.07;2.27;;;12.50;71.60;;;;;;10524005;28;20276;-90
2022/01/20 18:46:18;;;;;;;5.97;2.43;;;12.50;71.20;;;;;;10507234;28;20267;-89
2022/01/20 18:51:21;;;;;;;3.80;2.27;;;12.40;71.20;;;;;;10541487;28;20199;-89
2022/01/20 18:56:24;;;;;;;2.90;2.00;;;12.30;71.50;;;;;;10523722;28;20248;-89
2022/01/20 19:01:27;;;;;;;6.43;2.40;;;12.60;70.80;;;;;;10541061;28;20259;-89
2022/01/20 19:06:30;;;;;;;4.60;2.53;;;12.40;67.70;;;;;;10540700;28;20566;-89
2022/01/20 19:11:32;;;;;;;3.73;2.00;;;12.40;70.90;;;;;;10505957;28;20209;-89
2022/01/20 19:16:35;;;;;;;4.73;2.33;;;12.40;70.60;;;;;;10540726;28;20194;-89
2022/01/20 19:21:38;;;;;;;5.97;3.10;;;12.60;70.40;;;;;;10521728;28;20218;-89
2022/01/20 19:26:40;;;;;;;5.77;3.03;;;12.50;70.50;;;;;;10540457;28;20220;-89
2022/01/20 19:31:43;;;;;;;4.77;2.53;;;12.40;70.50;;;;;;10522017;28;20222;-89
2022/01/20 19:36:45;;;;;;;4.00;2.30;;;12.20;71.30;;;;;;10539865;28;20198;-89
2022/01/20 19:41:48;;;;;;;6.57;2.50;;;12.50;70.20;;;;;;10539801;28;20243;-89
2022/01/20 19:46:50;;;;;;;4.80;3.00;;;12.00;71.40;;;;;;10539859;28;20243;-89
2022/01/20 19:51:53;;;;;;;4.17;2.67;;;12.10;70.00;;;;;;10539674;28;20199;-89
2022/01/20 19:56:55;;;;;;;5.70;2.87;;;12.50;70.30;;;;;;10521438;28;20225;-90
2022/01/20 20:02:02;;;;;;;6.90;2.83;;;12.30;70.40;;;;;;10539096;28;20627;-90
2022/01/20 20:07:07;;;;;;;5.70;2.73;;;12.40;70.10;;;;;;10521062;28;20232;-90
2022/01/20 20:12:12;;;;;;;5.17;2.50;;;12.40;70.10;;;;;;10539264;28;20611;-89
2022/01/20 20:17:15;;;;;;;5.13;2.00;;;12.40;70.20;;;;;;10520550;28;20581;-89
2022/01/20 20:22:17;;;;;;;4.90;2.37;;;12.20;70.10;;;;;;10520509;28;20221;-89
2022/01/20 20:27:20;;;;;;;4.47;2.67;;;12.40;69.90;;;;;;10538545;28;20190;-90
2022/01/20 20:32:22;;;;;;;5.83;3.30;;;12.30;70.20;;;;;;10520926;28;20202;-91
2022/01/20 20:37:25;;;;;;;3.53;2.17;;;12.50;69.30;;;;;;10503643;28;20687;-91
2022/01/20 20:42:27;;;;;;;6.70;2.07;;;12.10;70.10;;;;;;10542985;28;20214;-90
2022/01/20 20:47:30;;;;;;;3.83;2.07;;;12.40;69.60;;;;;;10546515;28;20187;-90
2022/01/20 20:52:33;;;;;;;4.73;2.47;;;11.90;70.10;;;;;;10528075;28;20581;-90
2022/01/20 20:57:36;;;;;;;3.53;2.37;;;12.20;68.90;;;;;;10529633;28;20224;-90
2022/01/20 21:02:39;;;;;;;4.23;2.23;;;12.10;70.20;;;;;;10529925;28;20643;-90
2022/01/20 21:07:44;;;;;;;5.30;2.60;;;12.10;70.30;;;;;;10527713;28;20247;-90
2022/01/20 21:12:46;;;;;;;5.10;2.37;;;12.00;70.70;;;;;;10545996;28;20200;-90
2022/01/20 21:17:49;;;;;;;5.37;3.07;;;12.00;70.90;;;;;;10510551;28;20203;-90
2022/01/20 21:22:52;;;;;;;5.23;2.20;;;11.90;70.90;;;;;;10526796;28;20229;-90
2022/01/20 21:27:54;;;;;;;3.67;2.37;;;11.80;71.50;;;;;;10526645;28;20641;-90
2022/01/20 21:32:57;;;;;;;5.93;2.80;;;11.70;69.80;;;;;;10544784;28;20187;-89
2022/01/20 21:38:05;;;;;;;3.20;2.37;;;11.30;69.70;;;;;;10526194;28;20214;-89
2022/01/20 21:43:07;;;;;;;3.83;2.43;;;11.40;72.70;;;;;;10544655;28;20198;-90
2022/01/20 21:48:10;;;;;;;6.83;2.90;;;11.90;71.00;;;;;;10544250;28;20255;-90
2022/01/20 21:53:12;;;;;;;6.37;2.40;;;11.30;67.00;;;;;;10542837;28;20268;-89
2022/01/20 21:58:16;;;;;;;5.27;2.40;;;11.70;70.80;;;;;;10525845;28;20190;-90
2022/01/20 22:03:19;;;;;;;4.63;2.53;;;11.70;71.70;;;;;;10525542;28;20240;-89
2022/01/20 22:08:22;;;;;;;4.17;2.57;;;12.20;70.30;;;;;;10543359;28;20199;-89
2022/01/20 22:13:29;;;;;;;4.63;2.53;;;11.60;70.20;;;;;;10543163;28;20219;-89
2022/01/20 22:18:32;;;;;;;4.73;2.30;;;11.80;69.50;;;;;;10543019;28;20248;-89
2022/01/20 22:23:42;;;;;;;4.77;2.47;;;11.60;71.20;;;;;;10542913;28;20243;-89
2022/01/20 22:28:45;;;;;;;3.10;1.83;;;12.10;69.50;;;;;;10523728;28;20241;-89
2022/01/20 22:33:47;;;;;;;3.13;1.83;;;12.10;70.20;;;;;;10524191;28;20202;-89
2022/01/20 22:38:49;;;;;;;3.27;2.03;;;12.30;69.50;;;;;;10524302;28;20268;-89
2022/01/20 22:43:52;;;;;;;6.17;2.40;;;11.90;69.00;;;;;;10541862;28;20194;-89
2022/01/20 22:48:55;;;;;;;6.63;1.97;;;11.60;69.50;;;;;;10541501;28;20198;-89
2022/01/20 22:53:57;;;;;;;2.73;2.10;;;11.60;66.70;;;;;;10541513;28;20190;-89
2022/01/20 22:59:10;;;;;;;6.33;2.50;;;11.90;69.90;;;;;;10541107;28;20250;-89
2022/01/20 23:04:13;;;;;;;3.20;2.03;;;12.00;69.30;;;;;;10540528;28;20198;-89
2022/01/20 23:09:15;;;;;;;3.33;2.23;;;12.00;69.50;;;;;;10541005;28;20195;-89
2022/01/20 23:14:20;;;;;;;3.03;1.77;;;12.40;68.60;;;;;;10522438;28;20207;-89
2022/01/20 23:24:38;;;;;;;2.83;1.90;;;12.30;67.20;;;;;;10540485;28;20625;-89
2022/01/20 23:29:40;;;;;;;3.47;2.10;;;12.30;68.40;;;;;;10539607;28;20259;-90
2022/01/20 23:34:43;;;;;;;3.70;1.77;;;12.30;67.70;;;;;;10539868;28;20606;-89
2022/01/20 23:39:46;;;;;;;3.63;1.80;;;12.40;67.30;;;;;;10521998;28;20211;-89
2022/01/20 23:50:17;;;;;;;3.83;1.73;;;12.20;68.00;;;;;;10369665;28;20225;-89
2022/01/20 23:55:21;;;;;;;2.67;1.70;;;12.20;68.00;;;;;;10369842;28;20713;-89
